Time;durP1;ratioP1;P1;durP2;ratioP2;P2;SDS_P1;SDS_P2;PMS_P1;PMS_P2;Temp;Humidity;BMP_temperature;BMP_pressure;BME280_temperature;BME280_humidity;BME280_pressure;Samples;Min_cycle;Max_cycle;Signal;HPM_P1;HPM_P2
2021/05/08 07:01:40;;;;;;;5.00;3.60;;;;;;;15.93;41.85;99073.63;5334204;23;20376;-75
2021/05/08 07:04:05;;;;;;;3.90;3.20;;;;;;;17.12;40.74;99068.34;4918061;29;20312;-75
2021/05/08 07:06:30;;;;;;;3.83;3.33;;;;;;;17.95;38.34;99068.41;4917894;29;20119;-73
2021/05/08 07:08:56;;;;;;;3.30;3.00;;;;;;;18.15;37.21;99069.31;4918037;29;20032;-73
2021/05/08 07:11:22;;;;;;;5.20;2.97;;;;;;;19.45;34.66;99063.25;4917872;29;20031;-73
2021/05/08 07:13:47;;;;;;;4.72;3.22;;;;;;;19.78;34.65;99055.47;4918506;29;20027;-72
2021/05/08 07:16:13;;;;;;;3.97;3.53;;;;;;;18.50;36.91;99062.47;4917842;29;20504;-72
2021/05/08 07:18:38;;;;;;;6.50;3.95;;;;;;;19.34;35.55;99058.53;4917957;29;20658;-72
2021/05/08 07:21:04;;;;;;;5.47;3.83;;;;;;;19.35;35.54;99057.59;4917716;29;20390;-72
2021/05/08 07:23:29;;;;;;;5.25;3.78;;;;;;;16.95;38.83;99055.06;4917827;29;20084;-72
2021/05/08 07:25:55;;;;;;;9.18;3.70;;;;;;;16.16;41.74;99044.06;4917773;29;20028;-72
2021/05/08 07:28:23;;;;;;;3.10;2.80;;;;;;;18.98;37.17;99048.00;4917609;29;20473;-72
2021/05/08 07:30:50;;;;;;;5.22;3.42;;;;;;;20.25;33.72;99037.19;4917038;29;20032;-72
2021/05/08 07:33:17;;;;;;;3.67;2.92;;;;;;;21.32;32.10;99037.50;4917377;29;20024;-72
2021/05/08 07:35:43;;;;;;;3.58;3.05;;;;;;;21.46;31.53;99034.91;4917347;29;20083;-72
2021/05/08 07:38:09;;;;;;;5.60;2.85;;;;;;;20.89;31.83;99045.19;4917485;29;20110;-72
2021/05/08 07:40:39;;;;;;;3.47;2.83;;;;;;;21.95;29.66;99042.53;4917404;29;20067;-72
2021/05/08 07:43:05;;;;;;;4.13;2.80;;;;;;;21.31;29.69;99047.19;4917580;29;20048;-72
2021/05/08 07:45:31;;;;;;;5.63;2.47;;;;;;;23.15;26.79;99039.44;4916755;29;20414;-72
2021/05/08 07:47:57;;;;;;;4.28;2.90;;;;;;;22.18;27.62;99038.53;4917124;29;20032;-72
2021/05/08 07:50:24;;;;;;;3.92;2.58;;;;;;;20.94;26.86;99037.88;4917254;29;20036;-72
2021/05/08 07:52:50;;;;;;;5.55;2.63;;;;;;;20.71;28.83;99037.38;4917295;29;20090;-72
2021/05/08 07:55:15;;;;;;;4.68;2.58;;;;;;;20.89;28.46;99039.94;4917195;29;20032;-72
2021/05/08 07:57:41;;;;;;;4.93;2.28;;;;;;;20.76;28.94;99040.59;4917081;29;20032;-72
2021/05/08 08:00:08;;;;;;;4.65;2.53;;;;;;;22.00;28.02;99032.56;4917203;29;20024;-72
2021/05/08 08:02:34;;;;;;;4.68;2.33;;;;;;;19.24;30.21;99046.72;4916907;29;20040;-72
2021/05/08 08:05:01;;;;;;;4.03;2.13;;;;;;;19.89;29.76;99028.63;4917223;29;20111;-73
2021/05/08 08:07:26;;;;;;;4.38;2.40;;;;;;;18.07;30.98;99045.19;4916977;29;20024;-72
2021/05/08 08:09:52;;;;;;;2.72;2.05;;;;;;;20.07;29.36;99035.56;4917150;29;20039;-72
2021/05/08 08:12:17;;;;;;;6.03;2.20;;;;;;;20.90;27.11;99025.81;4916822;29;20394;-72
2021/05/08 08:14:42;;;;;;;2.90;1.80;;;;;;;21.92;26.84;99034.81;4916964;29;20079;-72
2021/05/08 08:17:07;;;;;;;6.38;2.20;;;;;;;23.06;24.20;99037.38;4916608;29;20087;-72
2021/05/08 08:19:33;;;;;;;3.03;2.10;;;;;;;23.52;24.50;99050.25;4916740;29;20028;-72
2021/05/08 08:21:59;;;;;;;4.50;2.00;;;;;;;23.13;23.52;99041.34;4916662;29;20035;-72
2021/05/08 08:24:25;;;;;;;3.97;2.05;;;;;;;23.29;23.86;99039.38;4916841;29;20070;-72
2021/05/08 08:26:50;;;;;;;3.20;2.22;;;;;;;24.54;22.39;99039.72;4916529;29;20410;-72
2021/05/08 08:29:16;;;;;;;3.10;1.95;;;;;;;21.44;25.83;99047.34;4916636;29;20030;-72
2021/05/08 08:31:43;;;;;;;3.38;2.10;;;;;;;24.33;23.43;99027.00;4916425;29;20036;-72
2021/05/08 08:34:08;;;;;;;2.63;1.75;;;;;;;24.55;22.69;99030.81;4916549;29;20035;-72
2021/05/08 08:36:34;;;;;;;1.75;1.52;;;;;;;25.01;23.05;99027.50;4916459;29;20409;-72
2021/05/08 08:38:59;;;;;;;5.15;2.03;;;;;;;25.44;21.57;99030.50;4916466;29;20107;-72
2021/05/08 08:41:25;;;;;;;3.45;1.60;;;;;;;26.02;19.73;99020.78;4916290;29;20032;-73
2021/05/08 08:43:50;;;;;;;5.80;1.85;;;;;;;25.11;21.42;99032.03;4916495;29;20397;-73
2021/05/08 08:46:17;;;;;;;3.00;1.65;;;;;;;25.72;20.68;99028.38;4916001;29;20028;-73
2021/05/08 08:48:43;;;;;;;2.15;1.52;;;;;;;24.37;23.00;99032.97;4916467;29;20099;-72
2021/05/08 08:51:08;;;;;;;1.67;1.25;;;;;;;23.70;22.17;99038.47;4916188;29;20115;-72
2021/05/08 08:53:35;;;;;;;2.42;1.40;;;;;;;22.76;23.72;99033.09;4916297;29;20040;-72
2021/05/08 08:56:02;;;;;;;2.13;1.40;;;;;;;22.38;24.62;99029.38;4916057;29;20024;-72
2021/05/08 08:58:33;;;;;;;1.60;1.13;;;;;;;21.66;24.16;99025.81;4916194;29;20433;-72
2021/05/08 09:00:59;;;;;;;3.05;1.83;;;;;;;20.64;25.03;99036.00;4915916;29;20401;-72
2021/05/08 09:03:25;;;;;;;2.30;1.50;;;;;;;19.86;25.71;99028.75;4916151;29;20035;-72
2021/05/08 09:05:51;;;;;;;2.15;1.40;;;;;;;18.86;27.59;99023.19;4914924;29;20024;-73
2021/05/08 09:08:16;;;;;;;2.00;1.13;;;;;;;19.10;27.72;99023.78;4915738;29;20068;-72
2021/05/08 09:10:42;;;;;;;3.17;1.17;;;;;;;20.08;26.78;99016.19;4916077;29;20028;-72
2021/05/08 09:13:16;;;;;;;2.25;1.30;;;;;;;18.74;27.88;99024.63;4915989;29;20031;-72
2021/05/08 09:15:44;;;;;;;1.85;1.23;;;;;;;17.99;30.58;99024.56;4916104;29;20389;-72
2021/05/08 09:18:31;;;;;;;1.50;1.17;;;;;;;17.91;29.25;99018.78;4910997;29;20143;-72
2021/05/08 09:20:57;;;;;;;2.67;1.25;;;;;;;17.72;29.14;99010.84;4915714;29;20485;-72
2021/05/08 09:23:24;;;;;;;3.40;1.33;;;;;;;19.12;28.70;99014.03;4915407;29;20042;-73
2021/05/08 09:26:03;;;;;;;5.47;1.58;;;;;;;19.93;28.78;99001.22;4915668;29;20418;-75
2021/05/08 09:28:29;;;;;;;3.95;1.40;;;;;;;18.34;28.70;99009.00;4930953;29;20064;-72
2021/05/08 09:30:55;;;;;;;1.13;1.02;;;;;;;17.78;30.18;98994.88;4919737;29;20060;-74
2021/05/08 09:33:26;;;;;;;1.45;1.25;;;;;;;17.83;30.31;99005.16;4927133;29;20099;-74
2021/05/08 09:36:09;;;;;;;2.90;1.15;;;;;;;18.19;28.66;99002.69;4924178;29;20024;-74
2021/05/08 09:38:37;;;;;;;6.20;1.10;;;;;;;18.33;29.48;98994.19;4930982;29;20110;-74
2021/05/08 09:41:07;;;;;;;7.03;1.70;;;;;;;18.33;29.69;98991.56;4920498;29;20027;-72
2021/05/08 09:43:34;;;;;;;1.23;1.00;;;;;;;18.16;30.08;98990.53;4925500;29;20618;-72
2021/05/08 09:45:59;;;;;;;5.35;1.77;;;;;;;17.52;29.89;98988.13;4927982;29;20027;-72
2021/05/08 09:48:31;;;;;;;4.78;1.13;;;;;;;18.29;28.99;98979.50;4918443;29;20024;-73
2021/05/08 09:51:27;;;;;;;2.15;1.63;;;;;;;18.54;28.61;98973.97;4924875;29;20032;-72
2021/05/08 09:53:54;;;;;;;2.33;1.20;;;;;;;18.14;29.29;98976.66;4927043;29;20106;-74
2021/05/08 09:56:42;;;;;;;3.17;1.13;;;;;;;18.00;29.82;98972.97;4917980;29;20115;-72
2021/05/08 09:59:34;;;;;;;1.70;1.20;;;;;;;17.87;29.94;98970.03;4907648;29;20556;-72
2021/05/08 10:02:02;;;;;;;2.58;1.15;;;;;;;17.69;30.66;98964.63;4921703;29;20136;-72
2021/05/08 10:04:41;;;;;;;4.10;1.50;;;;;;;17.42;29.98;98961.47;4920115;29;20059;-71
2021/05/08 10:07:07;;;;;;;3.95;1.75;;;;;;;18.22;28.12;98964.03;4920821;29;20086;-72
2021/05/08 10:09:33;;;;;;;2.13;1.20;;;;;;;18.80;29.78;98964.88;4927954;29;20039;-72
2021/05/08 10:12:04;;;;;;;1.48;1.38;;;;;;;18.74;29.14;98969.47;4931379;29;20103;-72
2021/05/08 10:14:31;;;;;;;4.72;1.40;;;;;;;18.97;28.55;98962.28;4932282;29;20028;-72
2021/05/08 10:16:59;;;;;;;2.25;1.50;;;;;;;18.96;28.12;98960.59;4922800;29;20030;-72
2021/05/08 10:19:29;;;;;;;3.87;1.40;;;;;;;19.47;28.14;98961.50;4929735;29;20641;-72
2021/05/08 10:21:57;;;;;;;3.33;1.40;;;;;;;21.05;25.12;98943.25;4929290;29;20043;-72
2021/05/08 10:24:25;;;;;;;2.63;1.20;;;;;;;18.42;29.68;98954.38;4922138;29;20503;-72
2021/05/08 10:26:57;;;;;;;2.72;1.17;;;;;;;19.66;27.31;98941.25;4906492;29;20079;-72
2021/05/08 10:29:27;;;;;;;5.45;1.50;;;;;;;23.49;23.96;98934.03;4927017;29;20032;-72
2021/05/08 10:31:55;;;;;;;1.50;1.10;;;;;;;23.77;23.54;98938.31;4921031;29;20032;-72
2021/05/08 10:34:51;;;;;;;2.50;1.20;;;;;;;24.65;21.89;98925.84;4924714;29;20032;-72
2021/05/08 10:37:16;;;;;;;1.58;1.10;;;;;;;24.07;21.62;98925.56;4927153;29;20059;-72
2021/05/08 10:39:59;;;;;;;5.32;2.08;;;;;;;24.10;20.96;98924.50;4918251;29;20035;-72
2021/05/08 10:42:43;;;;;;;4.40;1.23;;;;;;;24.94;21.16;98914.88;4933963;29;20031;-72
2021/05/08 10:45:17;;;;;;;3.67;1.30;;;;;;;25.05;20.84;98917.59;4924114;29;20024;-72
2021/05/08 10:47:59;;;;;;;3.10;1.20;;;;;;;24.43;21.95;98900.09;4926744;29;20028;-72
2021/05/08 10:50:30;;;;;;;2.08;1.00;;;;;;;25.48;20.61;98903.72;4918056;29;20552;-72
2021/05/08 10:52:58;;;;;;;4.85;1.15;;;;;;;24.90;22.51;98903.69;4933063;29;20035;-72
2021/05/08 10:55:24;;;;;;;2.00;1.40;;;;;;;26.15;20.04;98903.75;4925883;29;20035;-72
2021/05/08 10:58:14;;;;;;;2.97;1.15;;;;;;;22.86;22.40;98909.16;4925518;29;20028;-72
2021/05/08 11:00:46;;;;;;;4.15;1.38;;;;;;;22.60;22.93;98908.25;4933299;29;20058;-72
2021/05/08 11:03:11;;;;;;;3.80;1.30;;;;;;;21.25;24.51;98890.22;4924148;29;20504;-72
2021/05/08 11:05:52;;;;;;;3.08;1.30;;;;;;;22.37;23.47;98887.75;4927335;29;20032;-71
2021/05/08 11:08:27;;;;;;;1.83;1.08;;;;;;;23.93;21.46;98880.69;4932706;29;20067;-71
2021/05/08 11:10:56;;;;;;;1.73;1.25;;;;;;;23.45;21.81;98871.72;4906298;29;20031;-71
2021/05/08 11:13:24;;;;;;;1.27;0.90;;;;;;;23.55;22.16;98865.72;4929295;29;20024;-71
2021/05/08 11:15:50;;;;;;;2.53;1.10;;;;;;;22.14;22.71;98868.09;4929027;29;20055;-71
2021/05/08 11:18:33;;;;;;;2.47;1.20;;;;;;;22.30;23.37;98867.03;4921989;29;20056;-71
2021/05/08 11:21:08;;;;;;;3.70;1.17;;;;;;;24.04;20.93;98856.13;4906608;29;20497;-71
2021/05/08 11:23:48;;;;;;;2.90;1.25;;;;;;;23.71;22.48;98854.94;4927873;29;20031;-71
2021/05/08 11:26:22;;;;;;;2.30;1.35;;;;;;;23.29;22.47;98856.06;4926941;29;20511;-71
2021/05/08 11:28:59;;;;;;;1.35;0.95;;;;;;;22.83;23.99;98857.38;4920620;29;20362;-71
2021/05/08 11:31:31;;;;;;;4.07;1.20;;;;;;;20.69;25.06;98854.03;4928541;29;20032;-71
2021/05/08 11:34:14;;;;;;;2.30;1.00;;;;;;;19.46;27.52;98849.44;4929728;29;20099;-71
2021/05/08 11:36:47;;;;;;;1.05;0.85;;;;;;;21.26;26.40;98839.19;4920490;29;20111;-71
2021/05/08 11:39:16;;;;;;;1.63;1.23;;;;;;;21.23;25.70;98839.41;4929957;29;20024;-71
2021/05/08 11:41:43;;;;;;;6.03;0.80;;;;;;;23.40;22.69;98839.47;4927324;29;20038;-71
2021/05/08 11:44:09;;;;;;;1.85;1.63;;;;;;;24.19;21.16;98841.78;4922504;29;20040;-72
2021/05/08 11:46:35;;;;;;;1.52;1.20;;;;;;;24.98;20.82;98840.31;4932629;29;20096;-71
2021/05/08 11:49:01;;;;;;;3.67;1.00;;;;;;;24.26;20.67;98840.34;4921912;29;20023;-72
2021/05/08 11:51:27;;;;;;;1.85;1.30;;;;;;;25.05;22.44;98828.28;4927845;29;20032;-72
2021/05/08 11:54:05;;;;;;;1.10;0.98;;;;;;;24.58;21.24;98823.94;4924967;29;20039;-72
2021/05/08 11:56:31;;;;;;;2.47;1.55;;;;;;;24.21;22.25;98821.31;4917557;29;20036;-71
2021/05/08 11:58:56;;;;;;;1.52;1.00;;;;;;;24.11;21.04;98817.66;4931824;29;20017;-71
2021/05/08 12:01:21;;;;;;;1.65;1.10;;;;;;;23.57;21.68;98810.03;4924268;29;20032;-72
2021/05/08 12:03:54;;;;;;;1.52;1.10;;;;;;;20.97;23.79;98821.66;4917696;29;20063;-71
2021/05/08 12:06:19;;;;;;;1.35;1.00;;;;;;;21.21;24.51;98812.28;4918866;29;20028;-71
2021/05/08 12:08:44;;;;;;;1.90;1.23;;;;;;;21.67;23.98;98809.47;4919328;29;20031;-71
2021/05/08 12:11:15;;;;;;;3.08;1.45;;;;;;;21.76;24.51;98800.16;4929713;29;20509;-71
2021/05/08 12:13:40;;;;;;;1.30;1.20;;;;;;;20.78;24.88;98800.84;4926769;29;20027;-71
2021/05/08 12:16:07;;;;;;;2.97;1.83;;;;;;;21.51;25.04;98800.81;4922298;29;20035;-71
2021/05/08 12:18:33;;;;;;;1.30;1.20;;;;;;;20.14;25.58;98797.50;4932193;29;20020;-71
2021/05/08 12:21:01;;;;;;;1.50;1.10;;;;;;;20.60;24.61;98789.63;4920823;29;20019;-71
2021/05/08 12:23:27;;;;;;;5.35;1.42;;;;;;;20.78;25.21;98796.41;4927386;29;20505;-71
2021/05/08 12:26:15;;;;;;;1.77;1.30;;;;;;;20.50;25.37;98786.69;4915133;29;20127;-71
2021/05/08 12:28:54;;;;;;;1.50;1.00;;;;;;;20.83;25.88;98782.13;4932168;29;20082;-71
2021/05/08 12:31:29;;;;;;;2.10;1.20;;;;;;;20.39;25.19;98785.56;4923211;29;20027;-71
2021/05/08 12:34:06;;;;;;;1.80;1.08;;;;;;;20.77;25.44;98784.19;4923489;29;20067;-73
2021/05/08 12:36:34;;;;;;;2.50;1.10;;;;;;;20.98;27.11;98781.19;4931785;29;20484;-73
2021/05/08 12:39:20;;;;;;;1.45;1.15;;;;;;;20.57;26.32;98779.25;4920996;29;20024;-73
2021/05/08 12:41:59;;;;;;;3.28;1.15;;;;;;;20.60;26.23;98781.72;4924579;29;20032;-73
2021/05/08 12:44:35;;;;;;;1.60;1.20;;;;;;;21.40;24.85;98766.38;4932101;29;20031;-73
2021/05/08 12:50:01;;;;;;;3.55;1.05;;;;;;;21.63;25.05;98760.50;4924977;29;20504;-71
2021/05/08 12:52:26;;;;;;;1.45;1.23;;;;;;;20.56;25.33;98759.13;4931582;29;20106;-71
2021/05/08 12:54:52;;;;;;;5.20;1.35;;;;;;;20.04;25.95;98751.59;4919745;29;20467;-71
2021/05/08 12:57:17;;;;;;;2.55;1.10;;;;;;;19.81;27.89;98754.69;4927791;29;20070;-71
2021/05/08 12:59:55;;;;;;;2.47;1.50;;;;;;;20.79;27.18;98744.56;4926263;29;20027;-71
2021/05/08 13:02:22;;;;;;;1.92;1.25;;;;;;;20.07;26.53;98751.44;4919399;29;20390;-71
2021/05/08 13:04:49;;;;;;;2.15;1.00;;;;;;;20.42;27.87;98740.66;4931504;29;20439;-71
2021/05/08 13:07:30;;;;;;;1.60;1.20;;;;;;;20.61;27.62;98737.81;4922253;29;20038;-71
2021/05/08 13:10:18;;;;;;;2.30;1.52;;;;;;;21.29;26.34;98728.31;4922909;29;20032;-71
2021/05/08 13:12:45;;;;;;;6.70;1.30;;;;;;;20.86;26.87;98724.00;4931432;29;20027;-71
2021/05/08 13:15:15;;;;;;;3.58;1.40;;;;;;;19.86;27.09;98732.44;4953366;23;20071;-76
2021/05/08 13:17:40;;;;;;;1.20;1.00;;;;;;;19.64;27.33;98722.31;4905645;29;20028;-76
2021/05/08 13:20:07;;;;;;;4.18;1.50;;;;;;;20.15;27.42;98722.03;4910071;29;20123;-76
2021/05/08 13:22:35;;;;;;;3.42;1.23;;;;;;;19.31;28.23;98718.88;4900041;29;20036;-74
2021/05/08 13:25:00;;;;;;;1.90;1.27;;;;;;;19.05;29.31;98718.50;4924252;29;20047;-74
2021/05/08 13:27:26;;;;;;;3.38;1.23;;;;;;;19.13;30.06;98720.69;4913710;29;20452;-78
2021/05/08 13:29:52;;;;;;;2.22;1.20;;;;;;;19.31;28.92;98713.63;4927053;29;20023;-76
2021/05/08 13:32:18;;;;;;;1.83;1.00;;;;;;;19.54;28.94;98700.06;4919533;29;20103;-76
2021/05/08 13:34:43;;;;;;;3.70;1.35;;;;;;;20.00;27.80;98700.09;4931070;29;20110;-77
2021/05/08 13:37:08;;;;;;;1.83;1.05;;;;;;;20.32;27.79;98697.38;4921231;29;20039;-75
2021/05/08 13:39:34;;;;;;;1.00;0.90;;;;;;;20.96;27.73;98693.53;4925239;29;20028;-78
2021/05/08 13:41:59;;;;;;;3.95;1.13;;;;;;;21.14;26.33;98687.13;4926604;29;20024;-73
2021/05/08 13:44:24;;;;;;;1.30;1.20;;;;;;;21.78;25.49;98680.38;4921230;29;20538;-73
2021/05/08 13:46:51;;;;;;;1.30;1.00;;;;;;;21.73;27.87;98674.56;4934691;29;20028;-73
2021/05/08 13:49:16;;;;;;;1.98;1.30;;;;;;;21.93;24.81;98672.41;4924645;29;20031;-75
2021/05/08 13:51:42;;;;;;;1.42;1.27;;;;;;;21.70;26.78;98669.47;4928033;29;20830;-76
2021/05/08 13:54:07;;;;;;;1.45;1.10;;;;;;;21.19;26.43;98663.97;4932621;29;20535;-76
2021/05/08 13:56:33;;;;;;;4.00;1.02;;;;;;;21.23;26.97;98670.72;4921965;29;20043;-75
2021/05/08 13:58:58;;;;;;;1.20;0.90;;;;;;;21.54;26.00;98650.34;4933623;29;20366;-75
2021/05/08 14:01:23;;;;;;;2.15;0.90;;;;;;;21.87;27.40;98654.34;4926778;29;20023;-75
2021/05/08 14:03:49;;;;;;;2.38;1.10;;;;;;;22.04;27.09;98640.88;4926541;29;20389;-76
2021/05/08 14:06:14;;;;;;;1.80;0.88;;;;;;;21.96;26.60;98632.66;4933066;29;20156;-76
2021/05/08 14:08:42;;;;;;;3.13;1.02;;;;;;;21.77;26.53;98633.00;4922025;29;20282;-73
2021/05/08 14:11:08;;;;;;;2.50;1.10;;;;;;;21.73;27.28;98626.25;4932180;29;20028;-75
2021/05/08 14:13:33;;;;;;;2.03;1.10;;;;;;;20.67;28.83;98630.31;4927481;29;20121;-73
2021/05/08 14:15:58;;;;;;;2.22;1.33;;;;;;;21.04;28.34;98618.34;4925435;29;20410;-73
2021/05/08 14:18:24;;;;;;;1.75;0.90;;;;;;;20.63;27.46;98609.53;4933045;29;20031;-75
2021/05/08 14:20:49;;;;;;;1.35;1.25;;;;;;;20.65;27.77;98605.03;4921885;29;20020;-76
2021/05/08 14:23:14;;;;;;;1.30;0.90;;;;;;;20.97;28.28;98601.22;4930862;29;20038;-75
2021/05/08 14:25:40;;;;;;;1.10;1.00;;;;;;;20.97;28.17;98600.38;4918635;29;20030;-76
2021/05/08 14:28:05;;;;;;;3.28;2.63;;;;;;;20.69;28.96;98606.53;4930192;29;20031;-75
2021/05/08 14:30:31;;;;;;;3.17;1.15;;;;;;;19.94;27.66;98597.88;4921710;29;20028;-76
2021/05/08 14:32:56;;;;;;;1.65;0.90;;;;;;;19.89;28.09;98599.94;4933217;29;20028;-76
2021/05/08 14:35:21;;;;;;;0.85;0.82;;;;;;;19.98;27.57;98600.25;4925905;29;20118;-75
2021/05/08 14:37:46;;;;;;;2.28;1.30;;;;;;;20.33;28.34;98586.75;4926405;29;20023;-75
2021/05/08 14:40:12;;;;;;;0.77;0.73;;;;;;;20.92;28.47;98581.38;4931093;29;20039;-75
2021/05/08 14:42:38;;;;;;;1.73;1.10;;;;;;;21.53;27.34;98578.31;4920220;29;20123;-75
2021/05/08 14:45:04;;;;;;;1.55;1.30;;;;;;;21.66;28.73;98573.06;4932049;29;20470;-75
2021/05/08 14:47:30;;;;;;;8.18;1.02;;;;;;;22.04;28.29;98578.38;4925222;29;20091;-75
2021/05/08 14:49:56;;;;;;;1.00;0.90;;;;;;;21.79;26.44;98571.28;4921731;29;20075;-75
2021/05/08 14:52:22;;;;;;;1.83;1.10;;;;;;;21.32;26.88;98568.31;4933632;29;20519;-75
2021/05/08 14:54:48;;;;;;;0.90;0.90;;;;;;;21.55;27.69;98568.50;4920970;29;20386;-75
2021/05/08 14:57:13;;;;;;;1.52;0.95;;;;;;;22.23;26.21;98563.97;4930487;29;20087;-76
2021/05/08 14:59:39;;;;;;;1.15;0.93;;;;;;;22.26;28.30;98561.97;4927640;29;20024;-75
2021/05/08 15:02:04;;;;;;;2.10;1.10;;;;;;;22.50;26.50;98554.13;4923866;29;20035;-75
2021/05/08 15:04:30;;;;;;;1.98;1.20;;;;;;;22.35;26.51;98559.66;4933504;29;20406;-76
2021/05/08 15:06:55;;;;;;;1.10;0.93;;;;;;;22.04;27.25;98561.72;4921739;29;20102;-76
2021/05/08 15:09:23;;;;;;;3.15;1.20;;;;;;;20.96;27.78;98559.19;4929066;29;20100;-75
2021/05/08 15:11:50;;;;;;;2.85;1.48;;;;;;;21.25;28.07;98547.59;4927512;29;20034;-75
2021/05/08 15:14:15;;;;;;;5.07;2.13;;;;;;;21.70;27.86;98542.88;4921992;29;20111;-76
2021/05/08 15:16:41;;;;;;;1.02;0.93;;;;;;;21.33;28.61;98538.41;4933055;29;20110;-75
2021/05/08 15:19:06;;;;;;;1.65;1.10;;;;;;;21.24;27.82;98535.38;4916723;29;20031;-75
2021/05/08 15:21:31;;;;;;;1.38;1.27;;;;;;;21.47;27.92;98531.25;4926447;29;20019;-75
2021/05/08 15:23:57;;;;;;;1.38;1.10;;;;;;;21.88;28.02;98530.25;4924452;29;20039;-75
2021/05/08 15:26:22;;;;;;;2.03;1.00;;;;;;;21.44;28.25;98530.63;4917371;29;20397;-75
2021/05/08 15:28:48;;;;;;;1.58;1.00;;;;;;;21.89;27.39;98523.19;4933026;29;20032;-75
2021/05/08 15:31:14;;;;;;;1.20;1.10;;;;;;;21.32;28.82;98523.50;4923795;29;20040;-76
2021/05/08 15:33:39;;;;;;;8.68;1.20;;;;;;;21.79;28.14;98521.16;4926443;29;20102;-76
2021/05/08 15:36:05;;;;;;;2.72;1.10;;;;;;;21.28;29.57;98526.31;4930379;29;20032;-75
2021/05/08 15:38:30;;;;;;;1.90;1.30;;;;;;;21.03;29.85;98520.94;4920502;29;20168;-75
2021/05/08 15:40:57;;;;;;;2.00;1.10;;;;;;;20.70;31.00;98522.19;4932103;29;20103;-75
2021/05/08 15:43:22;;;;;;;1.17;1.00;;;;;;;20.14;30.68;98513.34;4924917;29;20039;-75
2021/05/08 15:45:48;;;;;;;0.82;0.82;;;;;;;20.08;32.06;98508.47;4925090;29;20032;-75
2021/05/08 15:48:13;;;;;;;4.45;1.10;;;;;;;20.12;31.83;98525.78;4931176;29;20039;-75
2021/05/08 15:50:39;;;;;;;3.42;1.65;;;;;;;19.81;32.05;98523.28;4918128;29;20133;-75
2021/05/08 15:53:04;;;;;;;6.20;4.47;;;;;;;19.99;31.77;98514.31;4922325;29;20038;-75
2021/05/08 15:55:29;;;;;;;9.35;5.68;;;;;;;20.09;32.42;98512.81;4927242;29;20142;-75
2021/05/08 15:57:55;;;;;;;4.65;3.10;;;;;;;20.06;31.48;98512.97;4928737;29;20026;-75
2021/05/08 16:00:20;;;;;;;5.05;1.70;;;;;;;20.08;31.50;98512.91;4917984;29;20032;-75
2021/05/08 16:02:46;;;;;;;4.43;1.58;;;;;;;20.33;31.25;98499.06;4931413;29;20456;-75
2021/05/08 16:05:15;;;;;;;5.53;2.00;;;;;;;20.46;32.20;98494.75;4918115;29;20027;-74
2021/05/08 16:07:40;;;;;;;7.95;1.80;;;;;;;20.67;32.48;98503.09;4914535;29;20393;-74
2021/05/08 16:10:12;;;;;;;5.78;2.28;;;;;;;20.62;32.86;98500.75;4928250;29;20115;-74
2021/05/08 16:12:37;;;;;;;3.03;1.30;;;;;;;20.58;31.36;98498.41;4918475;29;20393;-74
2021/05/08 16:15:03;;;;;;;1.70;1.30;;;;;;;20.41;32.95;98496.81;4922271;29;20028;-74
2021/05/08 16:17:29;;;;;;;2.97;1.52;;;;;;;20.22;32.84;98492.69;4924559;29;20036;-74
2021/05/08 16:19:54;;;;;;;4.50;2.75;;;;;;;20.62;33.57;98490.22;4922686;29;20024;-74
2021/05/08 16:22:19;;;;;;;2.30;1.00;;;;;;;20.27;33.17;98490.63;4916483;29;20040;-74
2021/05/08 16:24:45;;;;;;;3.03;2.15;;;;;;;20.62;33.01;98495.50;4929500;29;20031;-75
2021/05/08 16:27:10;;;;;;;1.73;1.30;;;;;;;20.31;33.46;98485.16;4929097;29;20051;-75
2021/05/08 16:29:35;;;;;;;2.25;1.70;;;;;;;20.29;33.09;98483.47;4925480;29;20626;-75
2021/05/08 16:32:00;;;;;;;5.10;1.50;;;;;;;20.35;33.51;98486.66;4922640;29;20024;-75
2021/05/08 16:34:26;;;;;;;3.05;1.02;;;;;;;20.70;32.00;98472.16;4930620;29;20032;-74
2021/05/08 16:36:51;;;;;;;3.00;1.80;;;;;;;20.54;33.49;98472.28;4919628;29;20078;-75
2021/05/08 16:39:17;;;;;;;1.33;1.20;;;;;;;20.47;32.61;98470.97;4926916;29;20028;-75
2021/05/08 16:41:43;;;;;;;2.28;0.95;;;;;;;20.34;32.40;98474.44;4926373;29;20511;-75
2021/05/08 16:44:09;;;;;;;2.13;1.20;;;;;;;20.07;34.61;98477.88;4921154;29;20035;-75
2021/05/08 16:46:34;;;;;;;13.80;9.48;;;;;;;20.15;34.17;98475.59;4931545;29;20024;-75
2021/05/08 16:49:04;;;;;;;4.30;1.50;;;;;;;19.95;34.73;98468.09;4919287;29;20020;-75
2021/05/08 16:51:32;;;;;;;1.23;1.13;;;;;;;19.55;34.57;98465.19;4925131;29;20027;-75
2021/05/08 16:53:58;;;;;;;5.13;1.30;;;;;;;19.65;35.11;98466.38;4913324;29;20031;-75
2021/05/08 16:56:23;;;;;;;1.42;1.08;;;;;;;19.70;34.95;98472.19;4909043;29;20512;-76
2021/05/08 16:58:48;;;;;;;3.72;1.50;;;;;;;19.85;34.49;98470.41;4931562;29;20095;-76
2021/05/08 17:01:14;;;;;;;5.57;1.45;;;;;;;20.15;33.91;98457.16;4906954;29;20036;-75
2021/05/08 17:03:39;;;;;;;2.00;1.30;;;;;;;20.63;33.04;98460.31;4905362;29;20412;-76
2021/05/08 17:06:05;;;;;;;1.38;1.20;;;;;;;21.11;32.41;98460.69;4904101;29;20043;-76
2021/05/08 17:08:34;;;;;;;1.88;1.17;;;;;;;20.65;33.71;98450.53;4903065;29;20040;-76
2021/05/08 17:10:59;;;;;;;1.35;1.17;;;;;;;20.52;33.43;98452.25;4902570;29;20073;-76
2021/05/08 17:13:25;;;;;;;1.42;1.00;;;;;;;20.23;33.43;98454.91;4905543;29;20134;-76
2021/05/08 17:15:51;;;;;;;3.30;1.20;;;;;;;20.16;34.42;98443.09;4902589;29;20056;-76
2021/05/08 17:18:16;;;;;;;1.75;0.93;;;;;;;19.72;35.00;98446.66;4904538;29;20028;-76
2021/05/08 17:20:42;;;;;;;2.67;1.23;;;;;;;19.80;35.52;98448.81;4905119;29;20036;-76
2021/05/08 17:23:07;;;;;;;4.68;1.00;;;;;;;19.39;35.16;98448.63;4903640;29;20058;-76
2021/05/08 17:25:32;;;;;;;2.78;1.77;;;;;;;19.17;35.75;98449.06;4904209;29;20064;-73
2021/05/08 17:27:59;;;;;;;2.20;1.55;;;;;;;18.90;36.14;98451.50;4903035;29;20032;-72
2021/05/08 17:30:24;;;;;;;8.15;1.40;;;;;;;18.94;35.98;98447.75;4906929;29;20032;-74
2021/05/08 17:32:50;;;;;;;1.40;1.30;;;;;;;18.68;36.98;98455.34;4901084;29;20486;-74
2021/05/08 17:35:15;;;;;;;2.70;1.08;;;;;;;18.57;37.08;98441.09;4904223;29;20036;-73
2021/05/08 17:37:41;;;;;;;2.20;1.38;;;;;;;18.77;37.26;98440.00;4906819;29;20115;-73
2021/05/08 17:40:07;;;;;;;1.88;1.23;;;;;;;18.58;37.82;98441.00;4899667;29;20111;-74
2021/05/08 17:42:32;;;;;;;2.00;1.30;;;;;;;18.50;37.45;98448.44;4900479;29;20179;-77
2021/05/08 17:44:57;;;;;;;1.33;1.23;;;;;;;18.49;38.04;98446.78;4907020;29;20044;-77
2021/05/08 17:47:24;;;;;;;1.85;1.60;;;;;;;18.45;38.74;98445.25;4904258;29;20032;-77
2021/05/08 17:49:49;;;;;;;7.80;1.50;;;;;;;18.28;39.14;98453.22;4906997;29;20614;-73
2021/05/08 17:52:14;;;;;;;0.95;0.95;;;;;;;18.22;38.68;98449.13;4903108;29;20036;-73
2021/05/08 17:54:40;;;;;;;5.38;1.17;;;;;;;18.20;39.14;98445.75;4902572;29;21379;-73
2021/05/08 17:57:05;;;;;;;1.80;1.23;;;;;;;18.18;39.23;98442.34;4905440;29;20084;-76
2021/05/08 17:59:31;;;;;;;5.22;1.73;;;;;;;18.19;39.77;98444.91;4902742;29;20394;-76
2021/05/08 18:02:11;;;;;;;3.72;2.15;;;;;;;17.93;42.46;98442.81;4903022;29;20016;-76
2021/05/08 18:04:37;;;;;;;5.70;2.20;;;;;;;17.84;42.63;98445.91;4903858;29;20067;-76
2021/05/08 18:07:03;;;;;;;4.03;1.83;;;;;;;17.46;45.58;98438.28;4903466;29;20179;-76
2021/05/08 18:09:29;;;;;;;2.67;2.30;;;;;;;16.93;48.37;98444.44;4901051;29;20038;-77
2021/05/08 18:11:54;;;;;;;3.17;2.22;;;;;;;16.79;48.90;98447.72;4903398;29;20031;-73
2021/05/08 18:14:20;;;;;;;2.47;2.28;;;;;;;16.74;49.67;98443.63;4902530;29;20773;-73
2021/05/08 18:16:46;;;;;;;3.28;2.10;;;;;;;16.44;49.73;98436.31;4905662;29;20036;-73
2021/05/08 18:19:12;;;;;;;7.38;1.90;;;;;;;16.27;50.17;98438.84;4900885;29;20032;-73
2021/05/08 18:21:37;;;;;;;4.47;2.58;;;;;;;16.27;50.57;98438.84;4904866;29;20047;-72
2021/05/08 18:24:03;;;;;;;3.40;2.53;;;;;;;16.07;51.79;98438.00;4904558;29;20035;-73
2021/05/08 18:26:29;;;;;;;3.38;1.85;;;;;;;15.78;52.00;98446.31;4904982;29;20024;-75
2021/05/08 18:28:54;;;;;;;4.40;2.08;;;;;;;15.74;51.89;98449.97;4904385;29;20063;-76
2021/05/08 18:31:20;;;;;;;2.55;1.92;;;;;;;15.53;52.37;98452.56;4907600;29;20032;-75
2021/05/08 18:33:46;;;;;;;4.28;1.85;;;;;;;15.36;52.75;98450.66;4906714;29;20498;-75
2021/05/08 18:36:11;;;;;;;3.17;2.38;;;;;;;15.21;52.74;98455.69;4908305;29;20032;-75
2021/05/08 18:38:37;;;;;;;2.25;2.05;;;;;;;15.14;52.68;98455.97;4909513;29;20032;-77
2021/05/08 18:41:03;;;;;;;2.53;1.80;;;;;;;15.04;53.06;98459.88;4905420;29;20036;-77